sensor_id;sensor_type;location;lat;lon;timestamp;P1;durP1;ratioP1;P2;durP2;ratioP2
44222;SDS011;29895;48.804;9.386;2023-05-29T00:00:32;11.50;;;6.15;;
44222;SDS011;29895;48.804;9.386;2023-05-29T00:02:58;15.57;;;6.60;;
44222;SDS011;29895;48.804;9.386;2023-05-29T00:05:24;13.88;;;6.60;;
44222;SDS011;29895;48.804;9.386;2023-05-29T00:07:50;11.93;;;6.38;;
44222;SDS011;29895;48.804;9.386;2023-05-29T00:10:15;13.48;;;6.50;;
44222;SDS011;29895;48.804;9.386;2023-05-29T00:12:41;13.35;;;6.75;;
44222;SDS011;29895;48.804;9.386;2023-05-29T00:15:07;13.40;;;6.43;;
44222;SDS011;29895;48.804;9.386;2023-05-29T00:17:34;14.57;;;7.47;;
44222;SDS011;29895;48.804;9.386;2023-05-29T00:20:00;15.32;;;7.28;;
44222;SDS011;29895;48.804;9.386;2023-05-29T00:22:29;15.88;;;8.05;;
44222;SDS011;29895;48.804;9.386;2023-05-29T00:24:55;13.70;;;7.03;;
44222;SDS011;29895;48.804;9.386;2023-05-29T00:27:20;14.63;;;7.45;;
44222;SDS011;29895;48.804;9.386;2023-05-29T00:29:46;16.35;;;8.27;;
44222;SDS011;29895;48.804;9.386;2023-05-29T00:32:11;14.38;;;8.77;;
44222;SDS011;29895;48.804;9.386;2023-05-29T00:34:37;16.52;;;7.47;;
44222;SDS011;29895;48.804;9.386;2023-05-29T00:37:03;16.95;;;8.30;;
44222;SDS011;29895;48.804;9.386;2023-05-29T00:39:29;21.13;;;9.10;;
44222;SDS011;29895;48.804;9.386;2023-05-29T00:41:54;15.05;;;9.00;;
44222;SDS011;29895;48.804;9.386;2023-05-29T00:44:21;16.48;;;8.45;;
44222;SDS011;29895;48.804;9.386;2023-05-29T00:46:48;16.50;;;8.23;;
44222;SDS011;29895;48.804;9.386;2023-05-29T00:49:16;19.98;;;8.88;;
44222;SDS011;29895;48.804;9.386;2023-05-29T00:51:42;22.27;;;8.68;;
44222;SDS011;29895;48.804;9.386;2023-05-29T00:54:08;17.73;;;9.00;;
44222;SDS011;29895;48.804;9.386;2023-05-29T00:56:41;18.92;;;8.90;;
44222;SDS011;29895;48.804;9.386;2023-05-29T00:59:10;16.42;;;8.30;;
44222;SDS011;29895;48.804;9.386;2023-05-29T01:01:36;14.50;;;7.57;;
44222;SDS011;29895;48.804;9.386;2023-05-29T01:04:05;17.02;;;8.68;;
44222;SDS011;29895;48.804;9.386;2023-05-29T01:06:31;16.10;;;8.20;;
44222;SDS011;29895;48.804;9.386;2023-05-29T01:08:57;14.82;;;7.75;;
44222;SDS011;29895;48.804;9.386;2023-05-29T01:14:06;13.20;;;7.60;;
44222;SDS011;29895;48.804;9.386;2023-05-29T01:27:14;12.35;;;6.93;;
44222;SDS011;29895;48.804;9.386;2023-05-29T01:29:42;12.07;;;6.47;;
44222;SDS011;29895;48.804;9.386;2023-05-29T01:32:09;14.45;;;6.97;;
44222;SDS011;29895;48.804;9.386;2023-05-29T01:34:36;12.95;;;6.35;;
44222;SDS011;29895;48.804;9.386;2023-05-29T01:37:01;10.90;;;6.28;;
44222;SDS011;29895;48.804;9.386;2023-05-29T01:39:27;13.95;;;6.80;;
44222;SDS011;29895;48.804;9.386;2023-05-29T01:41:54;15.35;;;7.15;;
44222;SDS011;29895;48.804;9.386;2023-05-29T01:44:20;11.10;;;6.38;;
44222;SDS011;29895;48.804;9.386;2023-05-29T01:46:46;13.55;;;6.63;;
44222;SDS011;29895;48.804;9.386;2023-05-29T01:49:13;12.45;;;6.65;;
44222;SDS011;29895;48.804;9.386;2023-05-29T01:51:41;12.10;;;6.85;;
44222;SDS011;29895;48.804;9.386;2023-05-29T01:54:07;15.98;;;6.38;;
44222;SDS011;29895;48.804;9.386;2023-05-29T01:56:33;14.95;;;6.68;;
44222;SDS011;29895;48.804;9.386;2023-05-29T01:59:00;11.30;;;6.65;;
44222;SDS011;29895;48.804;9.386;2023-05-29T02:01:28;11.48;;;6.78;;
44222;SDS011;29895;48.804;9.386;2023-05-29T02:03:53;14.48;;;6.82;;
44222;SDS011;29895;48.804;9.386;2023-05-29T02:06:19;9.20;;;5.18;;
44222;SDS011;29895;48.804;9.386;2023-05-29T02:08:45;12.48;;;6.55;;
44222;SDS011;29895;48.804;9.386;2023-05-29T02:11:11;11.73;;;6.50;;
44222;SDS011;29895;48.804;9.386;2023-05-29T02:13:37;13.82;;;6.25;;
44222;SDS011;29895;48.804;9.386;2023-05-29T02:16:03;13.52;;;6.85;;
44222;SDS011;29895;48.804;9.386;2023-05-29T02:18:29;13.27;;;6.38;;
44222;SDS011;29895;48.804;9.386;2023-05-29T02:20:56;13.80;;;6.63;;
44222;SDS011;29895;48.804;9.386;2023-05-29T02:23:22;14.65;;;7.03;;
44222;SDS011;29895;48.804;9.386;2023-05-29T02:25:47;13.10;;;6.90;;
44222;SDS011;29895;48.804;9.386;2023-05-29T02:28:13;14.00;;;7.15;;
44222;SDS011;29895;48.804;9.386;2023-05-29T02:30:39;14.15;;;6.45;;
44222;SDS011;29895;48.804;9.386;2023-05-29T02:33:05;13.52;;;7.22;;
44222;SDS011;29895;48.804;9.386;2023-05-29T02:35:31;13.45;;;7.57;;
44222;SDS011;29895;48.804;9.386;2023-05-29T02:37:57;14.45;;;6.80;;
44222;SDS011;29895;48.804;9.386;2023-05-29T02:40:22;13.32;;;6.05;;
44222;SDS011;29895;48.804;9.386;2023-05-29T02:42:49;11.63;;;6.20;;
44222;SDS011;29895;48.804;9.386;2023-05-29T02:45:15;11.25;;;6.03;;
44222;SDS011;29895;48.804;9.386;2023-05-29T02:47:41;12.40;;;5.97;;
44222;SDS011;29895;48.804;9.386;2023-05-29T02:50:07;10.15;;;6.20;;
44222;SDS011;29895;48.804;9.386;2023-05-29T02:52:33;15.93;;;6.43;;
44222;SDS011;29895;48.804;9.386;2023-05-29T02:54:59;13.65;;;6.30;;
44222;SDS011;29895;48.804;9.386;2023-05-29T02:57:25;14.10;;;6.18;;
44222;SDS011;29895;48.804;9.386;2023-05-29T02:59:51;11.15;;;6.10;;
44222;SDS011;29895;48.804;9.386;2023-05-29T03:02:17;13.50;;;6.38;;
44222;SDS011;29895;48.804;9.386;2023-05-29T03:04:43;14.13;;;7.05;;
44222;SDS011;29895;48.804;9.386;2023-05-29T03:07:10;12.30;;;6.20;;
44222;SDS011;29895;48.804;9.386;2023-05-29T03:09:35;10.90;;;6.25;;
44222;SDS011;29895;48.804;9.386;2023-05-29T03:12:01;13.35;;;6.35;;
44222;SDS011;29895;48.804;9.386;2023-05-29T03:14:27;11.52;;;5.95;;
44222;SDS011;29895;48.804;9.386;2023-05-29T03:16:55;14.30;;;6.40;;
44222;SDS011;29895;48.804;9.386;2023-05-29T03:19:21;14.65;;;6.82;;
44222;SDS011;29895;48.804;9.386;2023-05-29T03:21:47;15.70;;;6.60;;
44222;SDS011;29895;48.804;9.386;2023-05-29T03:24:12;11.80;;;5.82;;
44222;SDS011;29895;48.804;9.386;2023-05-29T03:26:38;18.92;;;6.35;;
44222;SDS011;29895;48.804;9.386;2023-05-29T03:29:04;14.52;;;6.78;;
44222;SDS011;29895;48.804;9.386;2023-05-29T03:31:30;13.05;;;5.97;;
44222;SDS011;29895;48.804;9.386;2023-05-29T03:33:56;14.50;;;6.60;;
44222;SDS011;29895;48.804;9.386;2023-05-29T03:36:23;13.52;;;7.20;;
44222;SDS011;29895;48.804;9.386;2023-05-29T03:38:48;18.45;;;7.75;;
44222;SDS011;29895;48.804;9.386;2023-05-29T03:41:14;18.30;;;9.38;;
44222;SDS011;29895;48.804;9.386;2023-05-29T03:43:40;17.98;;;8.13;;
44222;SDS011;29895;48.804;9.386;2023-05-29T03:46:05;10.10;;;6.20;;
44222;SDS011;29895;48.804;9.386;2023-05-29T03:48:31;10.48;;;5.38;;
44222;SDS011;29895;48.804;9.386;2023-05-29T03:50:57;12.48;;;6.13;;
44222;SDS011;29895;48.804;9.386;2023-05-29T03:53:22;11.43;;;6.32;;
44222;SDS011;29895;48.804;9.386;2023-05-29T03:55:48;13.02;;;5.30;;
44222;SDS011;29895;48.804;9.386;2023-05-29T03:58:13;11.30;;;5.72;;
44222;SDS011;29895;48.804;9.386;2023-05-29T04:00:39;14.00;;;5.90;;
44222;SDS011;29895;48.804;9.386;2023-05-29T04:03:05;10.32;;;5.57;;
44222;SDS011;29895;48.804;9.386;2023-05-29T04:05:31;12.25;;;5.57;;
44222;SDS011;29895;48.804;9.386;2023-05-29T04:07:56;12.77;;;6.22;;
44222;SDS011;29895;48.804;9.386;2023-05-29T04:10:22;15.23;;;6.15;;
44222;SDS011;29895;48.804;9.386;2023-05-29T04:12:51;10.20;;;5.47;;
44222;SDS011;29895;48.804;9.386;2023-05-29T04:15:16;9.65;;;4.80;;
44222;SDS011;29895;48.804;9.386;2023-05-29T04:17:42;9.27;;;5.03;;
44222;SDS011;29895;48.804;9.386;2023-05-29T04:20:08;8.57;;;5.10;;
44222;SDS011;29895;48.804;9.386;2023-05-29T04:22:37;9.48;;;4.50;;
44222;SDS011;29895;48.804;9.386;2023-05-29T04:25:03;9.68;;;4.78;;
44222;SDS011;29895;48.804;9.386;2023-05-29T04:27:33;11.20;;;4.95;;
44222;SDS011;29895;48.804;9.386;2023-05-29T04:30:02;11.05;;;5.15;;
44222;SDS011;29895;48.804;9.386;2023-05-29T04:32:29;10.85;;;5.40;;
44222;SDS011;29895;48.804;9.386;2023-05-29T04:34:55;11.50;;;5.45;;
44222;SDS011;29895;48.804;9.386;2023-05-29T04:37:20;9.63;;;4.88;;
44222;SDS011;29895;48.804;9.386;2023-05-29T04:39:54;10.73;;;5.30;;
44222;SDS011;29895;48.804;9.386;2023-05-29T04:42:20;8.93;;;4.80;;
44222;SDS011;29895;48.804;9.386;2023-05-29T04:44:47;11.88;;;5.70;;
44222;SDS011;29895;48.804;9.386;2023-05-29T04:47:14;10.02;;;5.55;;
44222;SDS011;29895;48.804;9.386;2023-05-29T04:49:40;10.90;;;5.03;;
44222;SDS011;29895;48.804;9.386;2023-05-29T04:52:06;8.88;;;4.82;;
44222;SDS011;29895;48.804;9.386;2023-05-29T04:54:32;8.18;;;4.65;;
44222;SDS011;29895;48.804;9.386;2023-05-29T04:56:59;8.45;;;4.57;;
44222;SDS011;29895;48.804;9.386;2023-05-29T04:59:25;10.82;;;4.13;;
44222;SDS011;29895;48.804;9.386;2023-05-29T05:01:51;10.70;;;4.78;;
44222;SDS011;29895;48.804;9.386;2023-05-29T05:04:16;13.40;;;4.65;;
44222;SDS011;29895;48.804;9.386;2023-05-29T05:06:42;11.48;;;5.05;;
44222;SDS011;29895;48.804;9.386;2023-05-29T05:09:10;10.82;;;4.80;;
44222;SDS011;29895;48.804;9.386;2023-05-29T05:11:36;10.02;;;5.13;;
44222;SDS011;29895;48.804;9.386;2023-05-29T05:14:01;9.75;;;5.40;;
44222;SDS011;29895;48.804;9.386;2023-05-29T05:16:27;10.20;;;5.05;;
44222;SDS011;29895;48.804;9.386;2023-05-29T05:18:52;10.45;;;5.07;;
44222;SDS011;29895;48.804;9.386;2023-05-29T05:21:18;10.82;;;5.85;;
44222;SDS011;29895;48.804;9.386;2023-05-29T05:23:44;13.02;;;5.32;;
44222;SDS011;29895;48.804;9.386;2023-05-29T05:26:10;10.65;;;5.95;;
44222;SDS011;29895;48.804;9.386;2023-05-29T05:28:36;9.75;;;5.22;;
44222;SDS011;29895;48.804;9.386;2023-05-29T05:31:01;9.43;;;5.40;;
44222;SDS011;29895;48.804;9.386;2023-05-29T05:33:27;10.80;;;5.78;;
44222;SDS011;29895;48.804;9.386;2023-05-29T05:35:52;12.15;;;5.63;;
44222;SDS011;29895;48.804;9.386;2023-05-29T05:38:18;9.40;;;5.50;;
44222;SDS011;29895;48.804;9.386;2023-05-29T05:40:44;10.63;;;5.78;;
44222;SDS011;29895;48.804;9.386;2023-05-29T05:43:10;10.30;;;5.30;;
44222;SDS011;29895;48.804;9.386;2023-05-29T05:45:36;13.90;;;6.40;;
44222;SDS011;29895;48.804;9.386;2023-05-29T05:48:07;8.27;;;5.53;;
44222;SDS011;29895;48.804;9.386;2023-05-29T05:50:33;7.60;;;5.03;;
44222;SDS011;29895;48.804;9.386;2023-05-29T05:52:59;8.27;;;5.70;;
44222;SDS011;29895;48.804;9.386;2023-05-29T05:55:24;10.70;;;6.00;;
44222;SDS011;29895;48.804;9.386;2023-05-29T05:57:51;9.90;;;5.35;;
44222;SDS011;29895;48.804;9.386;2023-05-29T06:00:17;8.82;;;5.63;;
44222;SDS011;29895;48.804;9.386;2023-05-29T06:02:43;11.63;;;6.22;;
44222;SDS011;29895;48.804;9.386;2023-05-29T06:05:10;12.88;;;5.80;;
44222;SDS011;29895;48.804;9.386;2023-05-29T06:07:36;10.73;;;5.88;;
44222;SDS011;29895;48.804;9.386;2023-05-29T06:10:02;12.68;;;5.65;;
44222;SDS011;29895;48.804;9.386;2023-05-29T06:12:29;20.00;;;7.20;;
44222;SDS011;29895;48.804;9.386;2023-05-29T06:14:55;14.05;;;5.80;;
44222;SDS011;29895;48.804;9.386;2023-05-29T06:17:20;9.00;;;4.97;;
44222;SDS011;29895;48.804;9.386;2023-05-29T06:19:46;10.68;;;5.82;;
44222;SDS011;29895;48.804;9.386;2023-05-29T06:22:13;13.95;;;6.63;;
44222;SDS011;29895;48.804;9.386;2023-05-29T06:24:39;14.07;;;5.45;;
44222;SDS011;29895;48.804;9.386;2023-05-29T06:27:05;11.93;;;5.20;;
44222;SDS011;29895;48.804;9.386;2023-05-29T06:29:31;10.07;;;5.93;;
44222;SDS011;29895;48.804;9.386;2023-05-29T06:31:57;11.05;;;5.63;;
44222;SDS011;29895;48.804;9.386;2023-05-29T06:34:23;13.98;;;6.65;;
44222;SDS011;29895;48.804;9.386;2023-05-29T06:36:48;12.75;;;5.90;;
44222;SDS011;29895;48.804;9.386;2023-05-29T06:39:15;10.05;;;6.15;;
44222;SDS011;29895;48.804;9.386;2023-05-29T06:41:41;11.75;;;5.75;;
44222;SDS011;29895;48.804;9.386;2023-05-29T06:44:07;10.68;;;6.15;;
44222;SDS011;29895;48.804;9.386;2023-05-29T06:46:32;9.65;;;5.60;;
44222;SDS011;29895;48.804;9.386;2023-05-29T06:48:58;14.90;;;5.70;;
44222;SDS011;29895;48.804;9.386;2023-05-29T06:51:23;10.25;;;5.60;;
44222;SDS011;29895;48.804;9.386;2023-05-29T06:53:49;9.35;;;5.28;;
44222;SDS011;29895;48.804;9.386;2023-05-29T06:56:15;9.70;;;5.80;;
44222;SDS011;29895;48.804;9.386;2023-05-29T06:58:41;12.30;;;5.70;;
44222;SDS011;29895;48.804;9.386;2023-05-29T07:01:06;12.25;;;5.47;;
44222;SDS011;29895;48.804;9.386;2023-05-29T07:03:32;10.48;;;5.20;;
44222;SDS011;29895;48.804;9.386;2023-05-29T07:05:58;9.15;;;4.80;;
44222;SDS011;29895;48.804;9.386;2023-05-29T07:08:24;10.75;;;5.60;;
44222;SDS011;29895;48.804;9.386;2023-05-29T07:10:50;12.57;;;6.18;;
44222;SDS011;29895;48.804;9.386;2023-05-29T07:13:16;9.13;;;5.75;;
44222;SDS011;29895;48.804;9.386;2023-05-29T07:15:43;10.93;;;5.55;;
44222;SDS011;29895;48.804;9.386;2023-05-29T07:18:09;10.23;;;4.95;;
44222;SDS011;29895;48.804;9.386;2023-05-29T07:20:35;10.73;;;5.60;;
44222;SDS011;29895;48.804;9.386;2023-05-29T07:23:02;8.45;;;5.03;;
44222;SDS011;29895;48.804;9.386;2023-05-29T07:25:28;8.73;;;5.40;;
44222;SDS011;29895;48.804;9.386;2023-05-29T07:27:54;11.32;;;5.60;;
44222;SDS011;29895;48.804;9.386;2023-05-29T07:30:20;13.32;;;5.22;;
44222;SDS011;29895;48.804;9.386;2023-05-29T07:32:45;10.38;;;5.00;;
44222;SDS011;29895;48.804;9.386;2023-05-29T07:35:11;11.25;;;5.10;;
44222;SDS011;29895;48.804;9.386;2023-05-29T07:37:37;8.90;;;4.55;;
44222;SDS011;29895;48.804;9.386;2023-05-29T07:40:02;8.27;;;5.30;;
44222;SDS011;29895;48.804;9.386;2023-05-29T07:42:32;10.65;;;5.47;;
44222;SDS011;29895;48.804;9.386;2023-05-29T07:44:59;8.90;;;5.00;;
44222;SDS011;29895;48.804;9.386;2023-05-29T07:47:25;11.18;;;4.90;;
44222;SDS011;29895;48.804;9.386;2023-05-29T07:49:51;10.63;;;5.13;;
44222;SDS011;29895;48.804;9.386;2023-05-29T07:52:17;8.98;;;4.97;;
44222;SDS011;29895;48.804;9.386;2023-05-29T07:54:43;10.60;;;5.10;;
44222;SDS011;29895;48.804;9.386;2023-05-29T07:57:09;10.52;;;4.85;;
44222;SDS011;29895;48.804;9.386;2023-05-29T07:59:39;8.25;;;4.80;;
44222;SDS011;29895;48.804;9.386;2023-05-29T08:02:06;7.25;;;4.53;;
44222;SDS011;29895;48.804;9.386;2023-05-29T08:04:32;7.80;;;4.82;;
44222;SDS011;29895;48.804;9.386;2023-05-29T08:06:59;7.65;;;5.30;;
44222;SDS011;29895;48.804;9.386;2023-05-29T08:09:30;10.40;;;5.57;;
44222;SDS011;29895;48.804;9.386;2023-05-29T08:11:56;11.88;;;5.03;;
44222;SDS011;29895;48.804;9.386;2023-05-29T08:14:21;9.27;;;4.97;;
44222;SDS011;29895;48.804;9.386;2023-05-29T08:16:47;9.40;;;5.00;;
44222;SDS011;29895;48.804;9.386;2023-05-29T08:19:13;9.80;;;5.18;;
44222;SDS011;29895;48.804;9.386;2023-05-29T08:21:38;10.77;;;5.10;;
44222;SDS011;29895;48.804;9.386;2023-05-29T08:24:04;9.07;;;5.03;;
44222;SDS011;29895;48.804;9.386;2023-05-29T08:26:30;9.48;;;4.95;;
44222;SDS011;29895;48.804;9.386;2023-05-29T08:28:56;10.00;;;5.43;;
44222;SDS011;29895;48.804;9.386;2023-05-29T08:31:22;9.13;;;5.55;;
44222;SDS011;29895;48.804;9.386;2023-05-29T08:33:50;9.20;;;5.03;;
44222;SDS011;29895;48.804;9.386;2023-05-29T08:36:16;10.50;;;4.97;;
44222;SDS011;29895;48.804;9.386;2023-05-29T08:38:42;9.27;;;5.32;;
44222;SDS011;29895;48.804;9.386;2023-05-29T08:41:08;7.78;;;4.60;;
44222;SDS011;29895;48.804;9.386;2023-05-29T08:43:45;9.57;;;5.43;;
44222;SDS011;29895;48.804;9.386;2023-05-29T08:46:12;10.40;;;4.97;;
44222;SDS011;29895;48.804;9.386;2023-05-29T08:48:40;8.50;;;4.97;;
44222;SDS011;29895;48.804;9.386;2023-05-29T08:51:12;7.43;;;5.10;;
44222;SDS011;29895;48.804;9.386;2023-05-29T08:53:37;10.15;;;5.05;;
44222;SDS011;29895;48.804;9.386;2023-05-29T08:56:03;9.40;;;4.70;;
44222;SDS011;29895;48.804;9.386;2023-05-29T08:58:29;7.63;;;4.80;;
44222;SDS011;29895;48.804;9.386;2023-05-29T09:00:56;9.95;;;5.43;;
44222;SDS011;29895;48.804;9.386;2023-05-29T09:03:22;13.32;;;5.97;;
44222;SDS011;29895;48.804;9.386;2023-05-29T09:05:47;11.23;;;5.03;;
44222;SDS011;29895;48.804;9.386;2023-05-29T09:08:13;9.88;;;4.93;;
44222;SDS011;29895;48.804;9.386;2023-05-29T09:10:43;7.35;;;5.00;;
44222;SDS011;29895;48.804;9.386;2023-05-29T09:13:10;9.98;;;4.95;;
44222;SDS011;29895;48.804;9.386;2023-05-29T09:15:36;10.07;;;5.20;;
44222;SDS011;29895;48.804;9.386;2023-05-29T09:18:05;10.43;;;5.90;;
44222;SDS011;29895;48.804;9.386;2023-05-29T09:20:31;10.55;;;6.40;;
44222;SDS011;29895;48.804;9.386;2023-05-29T09:25:27;12.45;;;5.20;;
44222;SDS011;29895;48.804;9.386;2023-05-29T09:27:55;6.95;;;4.30;;
44222;SDS011;29895;48.804;9.386;2023-05-29T09:30:41;10.85;;;5.38;;
44222;SDS011;29895;48.804;9.386;2023-05-29T09:33:14;8.18;;;4.65;;
44222;SDS011;29895;48.804;9.386;2023-05-29T09:35:41;11.27;;;5.45;;
44222;SDS011;29895;48.804;9.386;2023-05-29T09:38:18;9.68;;;5.13;;
44222;SDS011;29895;48.804;9.386;2023-05-29T09:40:45;8.05;;;4.90;;
44222;SDS011;29895;48.804;9.386;2023-05-29T09:43:15;9.35;;;5.60;;
44222;SDS011;29895;48.804;9.386;2023-05-29T09:45:48;7.40;;;4.72;;
44222;SDS011;29895;48.804;9.386;2023-05-29T09:48:19;7.28;;;4.15;;
44222;SDS011;29895;48.804;9.386;2023-05-29T09:50:48;8.32;;;4.18;;
44222;SDS011;29895;48.804;9.386;2023-05-29T09:55:44;9.83;;;4.37;;
44222;SDS011;29895;48.804;9.386;2023-05-29T09:58:13;8.80;;;4.45;;
44222;SDS011;29895;48.804;9.386;2023-05-29T10:00:41;11.98;;;4.50;;
44222;SDS011;29895;48.804;9.386;2023-05-29T10:03:08;11.05;;;4.53;;
44222;SDS011;29895;48.804;9.386;2023-05-29T10:05:34;8.40;;;4.45;;
44222;SDS011;29895;48.804;9.386;2023-05-29T10:08:00;7.72;;;4.28;;
44222;SDS011;29895;48.804;9.386;2023-05-29T10:10:27;7.68;;;4.40;;
44222;SDS011;29895;48.804;9.386;2023-05-29T10:12:54;9.73;;;4.57;;
44222;SDS011;29895;48.804;9.386;2023-05-29T10:15:22;14.82;;;4.60;;
44222;SDS011;29895;48.804;9.386;2023-05-29T10:17:50;11.32;;;4.20;;
44222;SDS011;29895;48.804;9.386;2023-05-29T10:20:19;11.32;;;4.50;;
44222;SDS011;29895;48.804;9.386;2023-05-29T10:22:47;11.00;;;4.70;;
44222;SDS011;29895;48.804;9.386;2023-05-29T10:25:16;6.63;;;4.13;;
44222;SDS011;29895;48.804;9.386;2023-05-29T10:27:45;8.00;;;4.15;;
44222;SDS011;29895;48.804;9.386;2023-05-29T10:30:54;11.80;;;4.70;;
44222;SDS011;29895;48.804;9.386;2023-05-29T10:38:40;9.35;;;3.92;;
44222;SDS011;29895;48.804;9.386;2023-05-29T10:43:56;8.30;;;4.18;;
44222;SDS011;29895;48.804;9.386;2023-05-29T10:49:17;11.30;;;3.90;;
44222;SDS011;29895;48.804;9.386;2023-05-29T10:51:44;7.13;;;4.07;;
44222;SDS011;29895;48.804;9.386;2023-05-29T10:54:10;11.00;;;3.97;;
44222;SDS011;29895;48.804;9.386;2023-05-29T10:56:36;6.00;;;3.95;;
44222;SDS011;29895;48.804;9.386;2023-05-29T10:59:02;9.70;;;4.00;;
44222;SDS011;29895;48.804;9.386;2023-05-29T11:01:29;8.32;;;3.95;;
44222;SDS011;29895;48.804;9.386;2023-05-29T11:06:42;8.55;;;4.13;;
44222;SDS011;29895;48.804;9.386;2023-05-29T11:12:21;6.22;;;3.53;;
44222;SDS011;29895;48.804;9.386;2023-05-29T11:15:05;5.65;;;3.53;;
44222;SDS011;29895;48.804;9.386;2023-05-29T11:20:47;8.27;;;4.15;;
44222;SDS011;29895;48.804;9.386;2023-05-29T11:25:34;6.43;;;3.80;;
44222;SDS011;29895;48.804;9.386;2023-05-29T11:28:01;7.05;;;3.80;;
44222;SDS011;29895;48.804;9.386;2023-05-29T11:30:29;6.40;;;3.97;;
44222;SDS011;29895;48.804;9.386;2023-05-29T11:32:55;9.15;;;3.70;;
44222;SDS011;29895;48.804;9.386;2023-05-29T11:35:26;7.22;;;3.90;;
44222;SDS011;29895;48.804;9.386;2023-05-29T11:37:55;8.82;;;3.78;;
44222;SDS011;29895;48.804;9.386;2023-05-29T11:40:22;7.85;;;3.95;;
44222;SDS011;29895;48.804;9.386;2023-05-29T11:42:48;6.20;;;3.80;;
44222;SDS011;29895;48.804;9.386;2023-05-29T11:45:15;6.93;;;3.92;;
44222;SDS011;29895;48.804;9.386;2023-05-29T11:47:53;6.53;;;3.97;;
44222;SDS011;29895;48.804;9.386;2023-05-29T11:50:27;5.20;;;3.60;;
44222;SDS011;29895;48.804;9.386;2023-05-29T11:52:55;5.72;;;3.53;;
44222;SDS011;29895;48.804;9.386;2023-05-29T11:55:21;7.93;;;4.05;;
44222;SDS011;29895;48.804;9.386;2023-05-29T11:57:51;6.55;;;3.70;;
44222;SDS011;29895;48.804;9.386;2023-05-29T12:00:25;5.57;;;3.60;;
44222;SDS011;29895;48.804;9.386;2023-05-29T12:02:57;6.13;;;3.60;;
44222;SDS011;29895;48.804;9.386;2023-05-29T12:05:23;8.32;;;3.97;;
44222;SDS011;29895;48.804;9.386;2023-05-29T12:07:53;8.25;;;3.47;;
44222;SDS011;29895;48.804;9.386;2023-05-29T12:10:21;9.52;;;3.75;;
44222;SDS011;29895;48.804;9.386;2023-05-29T12:12:51;6.32;;;3.65;;
44222;SDS011;29895;48.804;9.386;2023-05-29T12:15:18;8.40;;;3.67;;
44222;SDS011;29895;48.804;9.386;2023-05-29T12:17:45;7.30;;;4.10;;
44222;SDS011;29895;48.804;9.386;2023-05-29T12:20:12;10.82;;;3.78;;
44222;SDS011;29895;48.804;9.386;2023-05-29T12:22:39;6.85;;;3.78;;
44222;SDS011;29895;48.804;9.386;2023-05-29T12:27:33;6.90;;;3.92;;
44222;SDS011;29895;48.804;9.386;2023-05-29T12:30:07;4.70;;;3.20;;
44222;SDS011;29895;48.804;9.386;2023-05-29T12:32:39;5.57;;;3.78;;
44222;SDS011;29895;48.804;9.386;2023-05-29T12:35:12;5.53;;;3.60;;
44222;SDS011;29895;48.804;9.386;2023-05-29T12:37:49;5.57;;;3.22;;
44222;SDS011;29895;48.804;9.386;2023-05-29T12:42:53;5.43;;;3.35;;
44222;SDS011;29895;48.804;9.386;2023-05-29T12:45:26;7.63;;;4.07;;
44222;SDS011;29895;48.804;9.386;2023-05-29T12:47:57;7.40;;;4.07;;
44222;SDS011;29895;48.804;9.386;2023-05-29T12:50:27;6.43;;;3.95;;
44222;SDS011;29895;48.804;9.386;2023-05-29T12:53:07;7.20;;;3.90;;
44222;SDS011;29895;48.804;9.386;2023-05-29T12:55:37;5.47;;;4.07;;
44222;SDS011;29895;48.804;9.386;2023-05-29T12:58:07;6.45;;;3.97;;
44222;SDS011;29895;48.804;9.386;2023-05-29T13:00:35;7.15;;;3.40;;
44222;SDS011;29895;48.804;9.386;2023-05-29T13:03:02;7.60;;;4.10;;
44222;SDS011;29895;48.804;9.386;2023-05-29T13:05:28;10.43;;;3.67;;
44222;SDS011;29895;48.804;9.386;2023-05-29T13:07:54;8.77;;;4.20;;
44222;SDS011;29895;48.804;9.386;2023-05-29T13:10:20;7.40;;;4.18;;
44222;SDS011;29895;48.804;9.386;2023-05-29T13:12:46;5.30;;;3.90;;
44222;SDS011;29895;48.804;9.386;2023-05-29T13:15:15;5.93;;;3.90;;
44222;SDS011;29895;48.804;9.386;2023-05-29T13:17:41;7.10;;;4.10;;
44222;SDS011;29895;48.804;9.386;2023-05-29T13:20:07;5.93;;;4.00;;
44222;SDS011;29895;48.804;9.386;2023-05-29T13:22:34;7.20;;;4.00;;
44222;SDS011;29895;48.804;9.386;2023-05-29T13:25:00;5.63;;;3.88;;
44222;SDS011;29895;48.804;9.386;2023-05-29T13:27:26;7.15;;;3.80;;
44222;SDS011;29895;48.804;9.386;2023-05-29T13:29:52;6.07;;;3.95;;
44222;SDS011;29895;48.804;9.386;2023-05-29T13:32:19;7.32;;;4.03;;
44222;SDS011;29895;48.804;9.386;2023-05-29T13:34:45;6.45;;;4.00;;
44222;SDS011;29895;48.804;9.386;2023-05-29T13:37:11;6.65;;;3.95;;
44222;SDS011;29895;48.804;9.386;2023-05-29T13:39:36;7.15;;;3.97;;
44222;SDS011;29895;48.804;9.386;2023-05-29T13:42:02;6.80;;;4.05;;
44222;SDS011;29895;48.804;9.386;2023-05-29T13:44:28;5.22;;;4.00;;
44222;SDS011;29895;48.804;9.386;2023-05-29T13:46:54;5.65;;;4.07;;
44222;SDS011;29895;48.804;9.386;2023-05-29T13:49:20;7.35;;;4.40;;
44222;SDS011;29895;48.804;9.386;2023-05-29T13:51:46;6.97;;;4.03;;
44222;SDS011;29895;48.804;9.386;2023-05-29T13:54:12;5.40;;;3.55;;
44222;SDS011;29895;48.804;9.386;2023-05-29T13:56:40;6.32;;;3.88;;
44222;SDS011;29895;48.804;9.386;2023-05-29T13:59:06;6.90;;;3.58;;
44222;SDS011;29895;48.804;9.386;2023-05-29T14:01:34;6.47;;;4.28;;
44222;SDS011;29895;48.804;9.386;2023-05-29T14:04:00;7.38;;;3.88;;
44222;SDS011;29895;48.804;9.386;2023-05-29T14:06:26;8.57;;;3.90;;
44222;SDS011;29895;48.804;9.386;2023-05-29T14:08:52;8.07;;;4.28;;
44222;SDS011;29895;48.804;9.386;2023-05-29T14:11:18;7.75;;;3.75;;
44222;SDS011;29895;48.804;9.386;2023-05-29T14:13:44;5.35;;;3.83;;
44222;SDS011;29895;48.804;9.386;2023-05-29T14:16:10;5.68;;;3.88;;
44222;SDS011;29895;48.804;9.386;2023-05-29T14:18:36;7.03;;;4.30;;
44222;SDS011;29895;48.804;9.386;2023-05-29T14:21:02;6.88;;;4.10;;
44222;SDS011;29895;48.804;9.386;2023-05-29T14:23:27;5.70;;;4.07;;
44222;SDS011;29895;48.804;9.386;2023-05-29T14:25:53;7.15;;;4.25;;
44222;SDS011;29895;48.804;9.386;2023-05-29T14:28:19;7.15;;;4.10;;
44222;SDS011;29895;48.804;9.386;2023-05-29T14:30:44;5.90;;;3.80;;
44222;SDS011;29895;48.804;9.386;2023-05-29T14:33:10;5.40;;;3.60;;
44222;SDS011;29895;48.804;9.386;2023-05-29T14:35:36;6.57;;;3.85;;
44222;SDS011;29895;48.804;9.386;2023-05-29T14:38:02;7.53;;;3.75;;
44222;SDS011;29895;48.804;9.386;2023-05-29T14:40:27;5.47;;;3.95;;
44222;SDS011;29895;48.804;9.386;2023-05-29T14:42:53;5.72;;;3.38;;
44222;SDS011;29895;48.804;9.386;2023-05-29T14:45:19;9.18;;;4.20;;
44222;SDS011;29895;48.804;9.386;2023-05-29T14:47:45;7.13;;;3.75;;
44222;SDS011;29895;48.804;9.386;2023-05-29T14:50:10;7.18;;;3.90;;
44222;SDS011;29895;48.804;9.386;2023-05-29T14:52:36;6.20;;;3.60;;
44222;SDS011;29895;48.804;9.386;2023-05-29T14:55:04;5.13;;;4.03;;
44222;SDS011;29895;48.804;9.386;2023-05-29T14:57:30;6.93;;;3.75;;
44222;SDS011;29895;48.804;9.386;2023-05-29T14:59:58;5.22;;;3.78;;
44222;SDS011;29895;48.804;9.386;2023-05-29T15:02:24;7.68;;;4.18;;
44222;SDS011;29895;48.804;9.386;2023-05-29T15:04:50;6.18;;;3.45;;
44222;SDS011;29895;48.804;9.386;2023-05-29T15:07:16;6.07;;;3.60;;
44222;SDS011;29895;48.804;9.386;2023-05-29T15:09:42;4.90;;;3.38;;
44222;SDS011;29895;48.804;9.386;2023-05-29T15:12:08;5.90;;;4.25;;
44222;SDS011;29895;48.804;9.386;2023-05-29T15:14:34;5.82;;;3.33;;
44222;SDS011;29895;48.804;9.386;2023-05-29T15:17:00;5.53;;;3.83;;
44222;SDS011;29895;48.804;9.386;2023-05-29T15:19:27;5.97;;;3.20;;
44222;SDS011;29895;48.804;9.386;2023-05-29T15:21:52;5.13;;;3.58;;
44222;SDS011;29895;48.804;9.386;2023-05-29T15:24:18;7.20;;;3.50;;